createdAt,value
2019-01-06T00:04:10.592Z,11.6
2019-01-06T00:09:13.043Z,9.1
2019-01-06T00:14:16.208Z,10.2
2019-01-06T00:19:17.396Z,10.3
2019-01-06T00:24:19.753Z,13.8
2019-01-06T00:29:22.117Z,14.3
2019-01-06T00:34:24.281Z,12.4
2019-01-06T00:39:26.792Z,13.9
2019-01-06T00:44:28.910Z,11.3
2019-01-06T00:49:31.255Z,14.3
2019-01-06T00:54:33.447Z,13.1
2019-01-06T00:59:35.818Z,14.2
2019-01-06T01:04:38.061Z,13.7
2019-01-06T01:09:40.386Z,13.4
2019-01-06T01:14:42.846Z,14.5
2019-01-06T01:19:44.976Z,13
2019-01-06T01:24:47.340Z,12.1
2019-01-06T01:29:49.621Z,18.299999
2019-01-06T01:34:52.282Z,12.5
2019-01-06T01:39:54.092Z,14.1
2019-01-06T01:44:58.289Z,17.9
2019-01-06T01:50:00.244Z,16.299999
2019-01-06T01:55:02.168Z,16.299999
2019-01-06T02:00:03.299Z,11.9
2019-01-06T02:05:05.588Z,17.700001
2019-01-06T02:10:07.867Z,15.6
2019-01-06T02:15:10.169Z,19.5
2019-01-06T02:20:12.583Z,13.5
2019-01-06T02:25:14.743Z,18.4
2019-01-06T02:30:17.113Z,11.7
2019-01-06T02:35:19.525Z,17.5
2019-01-06T02:40:21.618Z,13.7
2019-01-06T02:45:23.900Z,13.3
2019-01-06T02:50:26.191Z,15
2019-01-06T02:55:28.540Z,13.8
2019-01-06T03:00:30.802Z,17.5
2019-01-06T03:05:33.126Z,15.5
2019-01-06T03:10:35.519Z,14.5
2019-01-06T03:15:37.688Z,14.7
2019-01-06T03:20:40.032Z,15.3
2019-01-06T03:25:44.193Z,10.4
2019-01-06T03:30:44.592Z,10.5
2019-01-06T03:35:46.845Z,13.4
2019-01-06T03:40:49.248Z,11.1
2019-01-06T03:45:51.564Z,11.7
2019-01-06T03:50:53.689Z,19.200001
2019-01-06T03:55:55.978Z,11.6
2019-01-06T04:00:58.333Z,13.1
2019-01-06T04:06:00.711Z,13.4
2019-01-06T04:11:02.874Z,14
2019-01-06T04:16:05.197Z,14.9
2019-01-06T04:21:07.523Z,11
2019-01-06T04:26:09.841Z,16.200001
2019-01-06T04:31:12.215Z,14.9
2019-01-06T04:36:14.494Z,15
2019-01-06T04:41:16.651Z,12.4
2019-01-06T04:46:18.939Z,13.9
2019-01-06T04:51:21.328Z,12.3
2019-01-06T04:56:23.630Z,18
2019-01-06T05:01:27.174Z,14.3
2019-01-06T05:06:29.555Z,16.299999
2019-01-06T05:11:31.563Z,17.5
2019-01-06T05:16:32.792Z,18.200001
2019-01-06T05:21:35.065Z,13.3
2019-01-06T05:26:37.499Z,14.9
2019-01-06T05:31:39.620Z,16.700001
2019-01-06T05:36:41.919Z,13.2
2019-01-06T05:41:44.298Z,13
2019-01-06T05:46:46.487Z,13.8
2019-01-06T05:51:48.799Z,12.1
2019-01-06T05:56:51.168Z,12.6
2019-01-06T06:01:53.406Z,13.6
2019-01-06T06:06:55.703Z,14.3
2019-01-06T06:11:57.970Z,12.7
2019-01-06T06:17:00.426Z,11.4
2019-01-06T06:22:02.544Z,11.7
2019-01-06T06:27:04.936Z,15.9
2019-01-06T06:32:08.959Z,12.8
2019-01-06T06:37:09.509Z,12.6
2019-01-06T06:42:11.983Z,13.1
2019-01-06T06:47:14.131Z,14.3
2019-01-06T06:52:16.355Z,14.2
2019-01-06T06:57:18.654Z,16.799999
2019-01-06T07:02:20.936Z,13.1
2019-01-06T07:07:23.193Z,11.5
2019-01-06T07:12:25.519Z,13.8
2019-01-06T07:17:27.769Z,15.6
2019-01-06T07:22:30.193Z,13.1
2019-01-06T07:27:32.382Z,15.7
2019-01-06T07:32:34.663Z,8.6
2019-01-06T07:37:37.047Z,16.1
2019-01-06T07:42:39.315Z,13.4
2019-01-06T07:47:41.582Z,12.3
2019-01-06T07:52:44.083Z,11.3
2019-01-06T07:57:46.087Z,10.1
2019-01-06T08:02:48.439Z,12
2019-01-06T08:07:50.830Z,11.8
2019-01-06T08:12:54.474Z,12.5
2019-01-06T08:17:56.441Z,14.5
2019-01-06T08:22:57.645Z,9.9
2019-01-06T08:27:59.960Z,11.4
2019-01-06T08:33:02.154Z,9.2
2019-01-06T08:38:04.480Z,12
2019-01-06T08:43:06.910Z,12.5
2019-01-06T08:48:09.152Z,15.1
2019-01-06T08:53:11.335Z,15.6
2019-01-06T08:58:13.648Z,12.3
2019-01-06T09:03:15.961Z,11.9
2019-01-06T09:08:18.280Z,15.5
2019-01-06T09:13:20.580Z,14.9
2019-01-06T09:18:22.869Z,14.2
2019-01-06T09:23:25.258Z,11.2
2019-01-06T09:28:27.526Z,15.5
2019-01-06T09:33:29.743Z,11.7
2019-01-06T09:38:31.994Z,13.6
2019-01-06T09:43:34.349Z,12.1
2019-01-06T09:48:39.005Z,13.4
2019-01-06T09:53:40.358Z,15.9
2019-01-06T09:58:41.350Z,14.5
2019-01-06T10:03:43.506Z,13.9
2019-01-06T10:08:45.845Z,14.9
2019-01-06T10:13:48.103Z,13.9
2019-01-06T10:18:50.450Z,11.2
2019-01-06T10:23:52.702Z,10.7
2019-01-06T10:28:54.947Z,14.5
2019-01-06T10:33:57.206Z,14.6
2019-01-06T10:38:59.591Z,12.7
2019-01-06T10:44:01.797Z,14.9
2019-01-06T10:49:04.103Z,15
2019-01-06T10:54:06.367Z,15.6
2019-01-06T10:59:08.699Z,14.9
2019-01-06T11:04:11.047Z,14.5
2019-01-06T11:09:13.349Z,15.2
2019-01-06T11:14:15.633Z,13.8
2019-01-06T11:19:17.935Z,12.9
2019-01-06T11:24:20.205Z,15.2
2019-01-06T11:29:22.462Z,12.4
2019-01-06T11:34:24.991Z,13.3
2019-01-06T11:39:27.251Z,12.2
2019-01-06T11:44:29.319Z,13.5
2019-01-06T11:49:31.710Z,12.2
2019-01-06T11:54:34.032Z,8.6
2019-01-06T11:59:36.288Z,12.1
2019-01-06T12:04:38.498Z,13.1
2019-01-06T12:09:40.899Z,11.9
2019-01-06T12:14:43.247Z,10.8
2019-01-06T12:19:45.449Z,11.8
2019-01-06T12:24:47.669Z,13
2019-01-06T12:29:50.145Z,12.1
2019-01-06T12:34:52.314Z,12.2
2019-01-06T12:39:54.594Z,12.1
2019-01-06T12:49:59.256Z,14.2
2019-01-06T12:55:01.534Z,8.7
2019-01-06T13:00:03.725Z,11.3
2019-01-06T13:05:06.133Z,16.5
2019-01-06T13:10:08.341Z,13.9
2019-01-06T13:15:10.744Z,12.9
2019-01-06T13:20:13.031Z,14.7
2019-01-06T13:25:15.254Z,10.6
2019-01-06T13:30:17.720Z,15.1
2019-01-06T13:35:19.911Z,8.9
2019-01-06T13:40:22.163Z,11.2
2019-01-06T13:45:24.495Z,13.4
2019-01-06T13:50:26.743Z,16.200001
2019-01-06T13:55:28.987Z,11.7
2019-01-06T14:00:31.312Z,11.6
2019-01-06T14:05:33.648Z,12
2019-01-06T14:10:35.910Z,12.9
2019-01-06T14:15:38.152Z,14.8
2019-01-06T14:20:40.547Z,11.8
2019-01-06T14:25:42.820Z,10.3
2019-01-06T14:30:45.086Z,16.5
2019-01-06T14:35:47.293Z,12.5
2019-01-06T14:40:49.676Z,14.3
2019-01-06T14:45:51.899Z,15.9
2019-01-06T14:50:54.275Z,14.6
2019-01-06T14:55:56.551Z,14.5
2019-01-06T15:00:58.761Z,12.4
2019-01-06T15:06:01.527Z,12.2
2019-01-06T15:11:03.524Z,11.8
2019-01-06T15:16:05.712Z,12.7
2019-01-06T15:21:07.967Z,12.3
2019-01-06T15:26:10.456Z,13.1
2019-01-06T15:31:12.650Z,12
2019-01-06T15:36:14.835Z,17.700001
2019-01-06T15:41:17.746Z,15.4
2019-01-06T15:46:19.603Z,11
2019-01-06T15:51:21.741Z,16.799999
2019-01-06T15:56:24.120Z,13.3
2019-01-06T16:01:26.444Z,14
2019-01-06T16:06:28.757Z,14
2019-01-06T16:11:30.983Z,15.8
2019-01-06T16:16:33.165Z,18.1
2019-01-06T16:21:35.531Z,14
2019-01-06T16:26:37.791Z,13.3
2019-01-06T16:31:40.205Z,16.799999
2019-01-06T16:36:42.445Z,17.5
2019-01-06T16:41:44.691Z,13.7
2019-01-06T16:46:47.054Z,14.6
2019-01-06T16:51:49.419Z,19.1
2019-01-06T16:56:51.616Z,16.700001
2019-01-06T17:01:53.929Z,18.5
2019-01-06T17:06:56.263Z,17.799999
2019-01-06T17:11:58.388Z,17.6
2019-01-06T17:17:00.783Z,15.9
2019-01-06T17:22:03.154Z,16.299999
2019-01-06T17:27:05.355Z,14.4
2019-01-06T17:32:07.676Z,17.200001
2019-01-06T17:37:10.023Z,14.5
2019-01-06T17:42:12.219Z,15.1
2019-01-06T17:47:14.634Z,15.2
2019-01-06T17:52:16.890Z,18.799999
2019-01-06T17:57:19.073Z,15
2019-01-06T18:02:21.434Z,20.799999
2019-01-06T18:07:23.754Z,16.9
2019-01-06T18:12:26.083Z,18.200001
2019-01-06T18:17:28.219Z,18.700001
2019-01-06T18:22:36.229Z,19.4
2019-01-06T18:27:32.940Z,16
2019-01-06T18:32:39.583Z,16.5
2019-01-06T18:37:37.517Z,17.799999
2019-01-06T18:42:39.879Z,18.6
2019-01-06T18:47:42.092Z,25.1
2019-01-06T18:52:44.292Z,18.6
2019-01-06T18:57:46.734Z,21.299999
2019-01-06T19:02:50.126Z,19.4
2019-01-06T19:07:51.235Z,20.200001
2019-01-06T19:13:02.337Z,19.9
2019-01-06T19:17:55.840Z,18.6
2019-01-06T19:22:58.147Z,19.6
2019-01-06T19:28:00.595Z,19.200001
2019-01-06T19:33:02.694Z,18.200001
2019-01-06T19:38:04.935Z,22.6
2019-01-06T19:43:07.286Z,13.9
2019-01-06T19:48:09.518Z,15.9
2019-01-06T19:53:11.938Z,22.4
2019-01-06T19:58:14.194Z,23.700001
2019-01-06T20:03:16.523Z,21.9
2019-01-06T20:08:18.762Z,20.299999
2019-01-06T20:13:21.136Z,23.200001
2019-01-06T20:18:23.342Z,18
2019-01-06T20:23:25.797Z,16.9
2019-01-06T20:28:27.927Z,17.4
2019-01-06T20:33:30.218Z,25.4
2019-01-06T20:38:32.527Z,17.6
2019-01-06T20:43:34.862Z,23.200001
2019-01-06T20:48:37.072Z,16.4
2019-01-06T20:53:39.499Z,22.799999
2019-01-06T20:58:41.733Z,17.5
2019-01-06T21:03:43.910Z,22.5
2019-01-06T21:08:46.243Z,18
2019-01-06T21:13:48.666Z,19.799999
2019-01-06T21:18:50.949Z,19.700001
2019-01-06T21:23:53.088Z,18.5
2019-01-06T21:28:55.485Z,19.5
2019-01-06T21:33:57.900Z,27.200001
2019-01-06T21:39:00.090Z,18.200001
2019-01-06T21:44:02.375Z,16.299999
2019-01-06T21:49:04.681Z,17.6
2019-01-06T21:54:07.055Z,17.4
2019-01-06T21:59:09.290Z,17.9
2019-01-06T22:04:13.050Z,22.6
2019-01-06T22:09:13.775Z,20.9
2019-01-06T22:14:16.137Z,19.700001
2019-01-06T22:19:18.394Z,22.9
2019-01-06T22:24:21.913Z,19.700001
2019-01-06T22:29:23.018Z,20.6
2019-01-06T22:34:25.320Z,30.1
2019-01-06T22:39:27.527Z,17.200001
2019-01-06T22:44:29.981Z,19.1
2019-01-06T22:49:32.235Z,17.299999
2019-01-06T22:54:34.510Z,24.299999
2019-01-06T22:59:36.759Z,28.200001
2019-01-06T23:04:39.113Z,23.299999
2019-01-06T23:09:41.329Z,26.9
2019-01-06T23:14:43.674Z,24.299999
2019-01-06T23:19:46.135Z,22.9
2019-01-06T23:24:48.273Z,23.700001
2019-01-06T23:29:50.527Z,20.299999
2019-01-06T23:34:52.839Z,24.799999
2019-01-06T23:39:55.084Z,18.6
2019-01-06T23:44:57.380Z,22.1
2019-01-06T23:49:59.729Z,20
2019-01-06T23:55:03.393Z,18.799999
